createdAt,value
2019-01-06T00:00:09.809Z,7.40
2019-01-06T00:03:01.313Z,4.43
2019-01-06T00:05:49.563Z,6.50
2019-01-06T00:08:41.040Z,5.40
2019-01-06T00:11:28.277Z,4.43
2019-01-06T00:14:16.872Z,5.80
2019-01-06T00:17:05.072Z,5.23
2019-01-06T00:19:58.685Z,4.60
2019-01-06T00:22:50.064Z,4.03
2019-01-06T00:25:43.219Z,4.10
2019-01-06T00:28:31.394Z,5.47
2019-01-06T00:31:18.160Z,5.17
2019-01-06T00:34:20.984Z,4.50
2019-01-06T00:37:21.433Z,4.73
2019-01-06T00:40:06.194Z,4.60
2019-01-06T00:42:52.926Z,4.63
2019-01-06T00:45:39.974Z,3.70
2019-01-06T00:48:27.310Z,4.50
2019-01-06T00:51:30.927Z,3.53
2019-01-06T00:54:34.435Z,3.60
2019-01-06T00:57:21.568Z,4.50
2019-01-06T01:00:07.132Z,4.83
2019-01-06T01:03:01.069Z,4.20
2019-01-06T01:05:52.038Z,4.07
2019-01-06T01:08:43.282Z,3.73
2019-01-06T01:11:30.153Z,4.43
2019-01-06T01:14:18.346Z,4.23
2019-01-06T01:17:21.677Z,3.50
2019-01-06T01:20:19.113Z,4.40
2019-01-06T01:23:12.451Z,3.57
2019-01-06T01:26:09.860Z,3.57
2019-01-06T01:28:58.058Z,3.77
2019-01-06T01:31:44.798Z,3.87
2019-01-06T01:34:52.234Z,3.90
2019-01-06T01:37:46.830Z,3.50
2019-01-06T01:40:47.155Z,3.43
2019-01-06T01:43:30.286Z,3.07
2019-01-06T01:46:16.917Z,3.50
2019-01-06T01:49:17.460Z,3.93
2019-01-06T01:52:04.570Z,3.80
2019-01-06T01:54:46.225Z,4.07
2019-01-06T01:57:37.442Z,3.67
2019-01-06T02:00:24.588Z,3.80
2019-01-06T02:03:11.805Z,3.90
2019-01-06T02:06:09.292Z,3.10
2019-01-06T02:08:50.624Z,3.60
2019-01-06T02:11:33.556Z,3.50
2019-01-06T02:14:24.627Z,4.03
2019-01-06T02:17:11.420Z,3.00
2019-01-06T02:19:58.550Z,3.47
2019-01-06T02:22:45.705Z,2.60
2019-01-06T02:25:32.744Z,4.10
2019-01-06T02:28:23.673Z,4.00
2019-01-06T02:31:10.526Z,3.27
2019-01-06T02:34:04.549Z,4.17
2019-01-06T02:37:01.273Z,4.67
2019-01-06T02:39:52.237Z,3.80
2019-01-06T02:42:39.367Z,4.07
2019-01-06T02:45:36.430Z,3.83
2019-01-06T02:48:36.874Z,3.63
2019-01-06T02:51:25.065Z,3.00
2019-01-06T02:54:19.590Z,3.77
2019-01-06T02:57:06.385Z,3.60
2019-01-06T03:00:06.940Z,4.23
2019-01-06T03:02:55.133Z,3.60
2019-01-06T03:05:49.488Z,3.87
2019-01-06T03:08:36.570Z,3.07
2019-01-06T03:11:23.786Z,3.23
2019-01-06T03:14:05.197Z,3.07
2019-01-06T03:16:52.422Z,3.30
2019-01-06T03:19:43.630Z,3.10
2019-01-06T03:22:30.390Z,3.27
2019-01-06T03:25:27.690Z,3.40
2019-01-06T03:28:15.643Z,3.10
2019-01-06T03:31:06.882Z,2.40
2019-01-06T03:33:52.398Z,3.03
2019-01-06T03:36:55.754Z,2.77
2019-01-06T03:39:49.674Z,2.80
2019-01-06T03:42:36.928Z,3.30
2019-01-06T03:45:30.055Z,3.00
2019-01-06T03:48:17.197Z,2.87
2019-01-06T03:51:05.399Z,2.97
2019-01-06T03:53:57.974Z,3.60
2019-01-06T03:56:55.190Z,2.63
2019-01-06T03:59:46.168Z,2.80
2019-01-06T04:02:34.331Z,2.97
2019-01-06T04:05:22.792Z,3.03
2019-01-06T04:08:23.608Z,3.10
2019-01-06T04:11:20.768Z,3.10
2019-01-06T04:14:18.012Z,2.50
2019-01-06T04:17:04.884Z,3.13
2019-01-06T04:19:59.403Z,2.37
2019-01-06T04:23:00.043Z,2.77
2019-01-06T04:25:46.886Z,2.93
2019-01-06T04:28:33.940Z,2.60
2019-01-06T04:31:20.882Z,2.37
2019-01-06T04:34:16.554Z,2.83
2019-01-06T04:37:03.534Z,3.23
2019-01-06T04:39:45.027Z,2.63
2019-01-06T04:42:28.585Z,2.90
2019-01-06T04:45:08.328Z,2.57
2019-01-06T04:48:08.590Z,3.10
2019-01-06T04:50:55.438Z,3.13
2019-01-06T04:53:49.881Z,2.60
2019-01-06T04:56:36.863Z,2.90
2019-01-06T04:59:28.061Z,2.40
2019-01-06T05:02:14.970Z,2.53
2019-01-06T05:05:01.991Z,3.57
2019-01-06T05:08:02.492Z,2.70
2019-01-06T05:10:49.310Z,3.00
2019-01-06T05:13:43.604Z,2.70
2019-01-06T05:16:31.752Z,3.40
2019-01-06T05:19:38.438Z,2.00
2019-01-06T05:22:44.784Z,2.30
2019-01-06T05:25:45.147Z,2.50
2019-01-06T05:28:51.229Z,2.37
2019-01-06T05:31:57.612Z,2.90
2019-01-06T05:34:56.659Z,2.83
2019-01-06T05:37:51.133Z,2.77
2019-01-06T05:40:42.004Z,2.30
2019-01-06T05:43:35.240Z,2.80
2019-01-06T05:46:26.575Z,3.30
2019-01-06T05:49:26.965Z,3.70
2019-01-06T05:52:13.506Z,2.97
2019-01-06T05:55:12.745Z,3.17
2019-01-06T05:58:07.176Z,3.03
2019-01-06T06:01:10.829Z,2.77
2019-01-06T06:03:57.609Z,3.03
2019-01-06T06:06:44.370Z,2.77
2019-01-06T06:09:38.890Z,3.67
2019-01-06T06:12:34.029Z,2.80
2019-01-06T06:15:20.877Z,3.07
2019-01-06T06:18:27.511Z,3.17
2019-01-06T06:21:14.476Z,3.60
2019-01-06T06:24:03.857Z,2.40
2019-01-06T06:26:50.704Z,3.67
2019-01-06T06:29:51.573Z,3.47
2019-01-06T06:32:37.855Z,3.43
2019-01-06T06:35:31.869Z,3.07
2019-01-06T06:38:38.232Z,3.10
2019-01-06T06:41:25.296Z,3.30
2019-01-06T06:44:31.960Z,3.20
2019-01-06T06:47:27.645Z,3.40
2019-01-06T06:50:14.619Z,3.57
2019-01-06T06:53:01.707Z,3.17
2019-01-06T06:55:48.834Z,3.67
2019-01-06T06:58:33.128Z,3.97
2019-01-06T07:01:52.930Z,3.67
2019-01-06T07:04:39.986Z,3.93
2019-01-06T07:07:46.544Z,3.27
2019-01-06T07:10:43.780Z,3.50
2019-01-06T07:13:44.049Z,3.27
2019-01-06T07:17:06.837Z,4.23
2019-01-06T07:19:54.157Z,3.50
2019-01-06T07:22:45.631Z,3.23
2019-01-06T07:25:37.058Z,2.50
2019-01-06T07:28:24.780Z,3.43
2019-01-06T07:31:21.953Z,3.50
2019-01-06T07:34:10.185Z,4.73
2019-01-06T07:37:05.697Z,3.90
2019-01-06T07:39:51.426Z,3.90
2019-01-06T07:42:45.651Z,4.13
2019-01-06T07:45:48.621Z,3.80
2019-01-06T07:48:42.824Z,3.63
2019-01-06T07:51:29.649Z,3.57
2019-01-06T07:54:26.823Z,3.63
2019-01-06T07:57:21.129Z,2.87
2019-01-06T08:00:15.260Z,3.23
2019-01-06T08:02:45.036Z,4.03
2019-01-06T08:05:39.323Z,2.90
2019-01-06T08:08:26.180Z,3.80
2019-01-06T08:11:14.371Z,3.57
2019-01-06T08:14:01.394Z,4.03
2019-01-06T08:16:46.205Z,4.23
2019-01-06T08:19:40.146Z,3.10
2019-01-06T08:22:37.274Z,3.37
2019-01-06T08:25:31.458Z,3.40
2019-01-06T08:28:18.442Z,3.20
2019-01-06T08:31:14.065Z,3.27
2019-01-06T08:34:04.377Z,3.87
2019-01-06T08:36:51.210Z,3.53
2019-01-06T08:39:33.336Z,3.20
2019-01-06T08:42:27.605Z,3.03
2019-01-06T08:45:28.156Z,2.93
2019-01-06T08:48:15.290Z,3.40
2019-01-06T08:51:11.534Z,3.00
2019-01-06T08:53:58.277Z,2.93
2019-01-06T08:56:50.500Z,2.50
2019-01-06T08:59:40.457Z,2.33
2019-01-06T09:02:43.980Z,2.57
2019-01-06T09:05:32.202Z,2.50
2019-01-06T09:08:19.297Z,2.40
2019-01-06T09:11:07.520Z,2.67
2019-01-06T09:14:08.383Z,2.70
2019-01-06T09:17:02.438Z,2.50
2019-01-06T09:19:50.644Z,2.33
2019-01-06T09:22:49.389Z,2.33
2019-01-06T09:25:40.890Z,2.93
2019-01-06T09:28:34.010Z,2.30
2019-01-06T09:31:28.058Z,2.50
2019-01-06T09:34:17.178Z,2.63
2019-01-06T09:37:08.218Z,2.63
2019-01-06T09:40:08.813Z,2.63
2019-01-06T09:42:59.817Z,2.50
2019-01-06T09:45:47.068Z,3.10
2019-01-06T09:48:34.151Z,3.10
2019-01-06T09:51:37.390Z,3.20
2019-01-06T09:54:28.488Z,3.40
2019-01-06T09:57:15.502Z,3.40
2019-01-06T10:00:06.752Z,3.87
2019-01-06T10:03:04.102Z,3.20
2019-01-06T10:05:52.358Z,3.63
2019-01-06T10:08:55.847Z,3.00
2019-01-06T10:12:03.185Z,3.80
2019-01-06T10:14:59.117Z,4.00
2019-01-06T10:17:50.449Z,4.53
2019-01-06T10:20:37.605Z,4.03
2019-01-06T10:23:32.063Z,3.47
2019-01-06T10:26:36.394Z,3.20
2019-01-06T10:29:30.529Z,2.70
2019-01-06T10:32:17.898Z,2.93
2019-01-06T10:35:00.170Z,2.83
2019-01-06T10:37:48.390Z,2.40
